sensor_id;sensor_type;location;lat;lon;timestamp;pressure;altitude;pressure_sealevel;temperature;humidity
9746;BME280;4912;50.836;12.958;2024-02-28T00:00:52;97888.72;;;6.48;100.00
9746;BME280;4912;50.836;12.958;2024-02-28T00:03:23;97891.81;;;6.50;100.00
9746;BME280;4912;50.836;12.958;2024-02-28T00:05:54;97891.16;;;6.46;100.00
9746;BME280;4912;50.836;12.958;2024-02-28T00:08:25;97893.47;;;6.48;100.00
9746;BME280;4912;50.836;12.958;2024-02-28T00:10:55;97904.34;;;6.51;100.00
9746;BME280;4912;50.836;12.958;2024-02-28T00:13:31;97898.19;;;6.60;100.00
9746;BME280;4912;50.836;12.958;2024-02-28T00:16:05;97900.28;;;6.56;100.00
9746;BME280;4912;50.836;12.958;2024-02-28T00:18:36;97902.38;;;6.52;100.00
9746;BME280;4912;50.836;12.958;2024-02-28T00:21:07;97896.44;;;6.53;100.00
9746;BME280;4912;50.836;12.958;2024-02-28T00:23:39;97900.63;;;6.58;100.00
9746;BME280;4912;50.836;12.958;2024-02-28T00:26:12;97898.41;;;6.66;100.00
9746;BME280;4912;50.836;12.958;2024-02-28T00:28:45;97890.94;;;6.66;100.00
9746;BME280;4912;50.836;12.958;2024-02-28T00:31:15;97894.47;;;6.67;100.00
9746;BME280;4912;50.836;12.958;2024-02-28T00:33:46;97888.66;;;6.65;100.00
9746;BME280;4912;50.836;12.958;2024-02-28T00:36:20;97896.97;;;6.61;100.00
9746;BME280;4912;50.836;12.958;2024-02-28T00:38:50;97901.50;;;6.68;100.00
9746;BME280;4912;50.836;12.958;2024-02-28T00:41:21;97897.22;;;6.67;100.00
9746;BME280;4912;50.836;12.958;2024-02-28T00:43:57;97901.06;;;6.69;100.00
9746;BME280;4912;50.836;12.958;2024-02-28T00:46:32;97896.34;;;6.70;100.00
9746;BME280;4912;50.836;12.958;2024-02-28T00:49:02;97891.28;;;6.68;100.00
9746;BME280;4912;50.836;12.958;2024-02-28T00:51:35;97891.28;;;6.68;100.00
9746;BME280;4912;50.836;12.958;2024-02-28T00:54:06;97895.66;;;6.78;100.00
9746;BME280;4912;50.836;12.958;2024-02-28T00:56:37;97884.66;;;6.78;100.00
9746;BME280;4912;50.836;12.958;2024-02-28T00:59:10;97882.59;;;6.82;100.00
9746;BME280;4912;50.836;12.958;2024-02-28T01:01:41;97887.41;;;6.91;100.00
9746;BME280;4912;50.836;12.958;2024-02-28T01:04:12;97887.97;;;6.98;100.00
9746;BME280;4912;50.836;12.958;2024-02-28T01:06:43;97882.03;;;7.00;100.00
9746;BME280;4912;50.836;12.958;2024-02-28T01:09:16;97878.03;;;7.01;100.00
9746;BME280;4912;50.836;12.958;2024-02-28T01:11:47;97883.44;;;7.05;100.00
9746;BME280;4912;50.836;12.958;2024-02-28T01:14:20;97889.03;;;7.01;100.00
9746;BME280;4912;50.836;12.958;2024-02-28T01:16:51;97884.88;;;6.96;100.00
9746;BME280;4912;50.836;12.958;2024-02-28T01:19:22;97887.97;;;6.98;100.00
9746;BME280;4912;50.836;12.958;2024-02-28T01:21:52;97885.66;;;6.97;100.00
9746;BME280;4912;50.836;12.958;2024-02-28T01:24:26;97883.03;;;6.93;100.00
9746;BME280;4912;50.836;12.958;2024-02-28T01:26:56;97878.09;;;6.88;100.00
9746;BME280;4912;50.836;12.958;2024-02-28T01:29:30;97892.28;;;6.87;100.00
9746;BME280;4912;50.836;12.958;2024-02-28T01:32:00;97890.50;;;6.80;100.00
9746;BME280;4912;50.836;12.958;2024-02-28T01:34:31;97876.63;;;6.84;100.00
9746;BME280;4912;50.836;12.958;2024-02-28T01:37:02;97875.00;;;6.86;100.00
9746;BME280;4912;50.836;12.958;2024-02-28T01:39:33;97876.53;;;6.87;100.00
9746;BME280;4912;50.836;12.958;2024-02-28T01:42:04;97875.13;;;6.83;100.00
9746;BME280;4912;50.836;12.958;2024-02-28T01:44:43;97873.44;;;6.85;100.00
9746;BME280;4912;50.836;12.958;2024-02-28T01:47:19;97872.47;;;6.92;100.00
9746;BME280;4912;50.836;12.958;2024-02-28T01:49:53;97871.69;;;6.91;100.00
9746;BME280;4912;50.836;12.958;2024-02-28T01:52:28;97867.72;;;6.92;100.00
9746;BME280;4912;50.836;12.958;2024-02-28T01:55:04;97872.03;;;6.93;100.00
9746;BME280;4912;50.836;12.958;2024-02-28T01:57:39;97858.28;;;6.93;100.00
9746;BME280;4912;50.836;12.958;2024-02-28T02:00:13;97855.59;;;7.03;100.00
9746;BME280;4912;50.836;12.958;2024-02-28T02:02:45;97854.28;;;7.07;100.00
9746;BME280;4912;50.836;12.958;2024-02-28T02:05:17;97861.00;;;7.06;100.00
9746;BME280;4912;50.836;12.958;2024-02-28T02:07:48;97853.19;;;7.05;100.00
9746;BME280;4912;50.836;12.958;2024-02-28T02:10:18;97858.56;;;7.08;100.00
9746;BME280;4912;50.836;12.958;2024-02-28T02:12:50;97856.03;;;7.01;100.00
9746;BME280;4912;50.836;12.958;2024-02-28T02:15:26;97852.53;;;7.01;100.00
9746;BME280;4912;50.836;12.958;2024-02-28T02:17:58;97853.41;;;6.97;100.00
9746;BME280;4912;50.836;12.958;2024-02-28T02:20:29;97854.19;;;6.98;100.00
9746;BME280;4912;50.836;12.958;2024-02-28T02:23:05;97865.06;;;7.02;100.00
9746;BME280;4912;50.836;12.958;2024-02-28T02:25:43;97866.72;;;6.99;100.00
9746;BME280;4912;50.836;12.958;2024-02-28T02:28:15;97860.13;;;6.96;100.00
9746;BME280;4912;50.836;12.958;2024-02-28T02:30:45;97868.72;;;6.86;100.00
9746;BME280;4912;50.836;12.958;2024-02-28T02:33:16;97859.69;;;6.85;100.00
9746;BME280;4912;50.836;12.958;2024-02-28T02:35:47;97861.88;;;6.90;100.00
9746;BME280;4912;50.836;12.958;2024-02-28T02:38:22;97863.44;;;6.91;100.00
9746;BME280;4912;50.836;12.958;2024-02-28T02:40:53;97863.78;;;6.93;100.00
9746;BME280;4912;50.836;12.958;2024-02-28T02:43:23;97862.22;;;6.92;100.00
9746;BME280;4912;50.836;12.958;2024-02-28T02:45:54;97860.91;;;6.84;100.00
9746;BME280;4912;50.836;12.958;2024-02-28T02:48:25;97864.13;;;6.83;100.00
9746;BME280;4912;50.836;12.958;2024-02-28T02:50:56;97861.47;;;6.79;100.00
9746;BME280;4912;50.836;12.958;2024-02-28T02:53:29;97864.34;;;6.76;100.00
9746;BME280;4912;50.836;12.958;2024-02-28T02:55:59;97869.63;;;6.83;100.00
9746;BME280;4912;50.836;12.958;2024-02-28T02:58:30;97869.16;;;6.84;100.00
9746;BME280;4912;50.836;12.958;2024-02-28T03:01:01;97880.06;;;6.75;100.00
9746;BME280;4912;50.836;12.958;2024-02-28T03:03:31;97882.16;;;6.71;100.00
9746;BME280;4912;50.836;12.958;2024-02-28T03:06:04;97878.31;;;6.69;100.00
9746;BME280;4912;50.836;12.958;2024-02-28T03:08:40;97892.03;;;6.69;100.00
9746;BME280;4912;50.836;12.958;2024-02-28T03:11:10;97891.06;;;6.63;100.00
9746;BME280;4912;50.836;12.958;2024-02-28T03:13:41;97893.94;;;6.59;100.00
9746;BME280;4912;50.836;12.958;2024-02-28T03:16:12;97895.78;;;6.62;100.00
9746;BME280;4912;50.836;12.958;2024-02-28T03:18:40;97898.31;;;6.56;100.00
9746;BME280;4912;50.836;12.958;2024-02-28T03:21:10;97905.78;;;6.56;100.00
9746;BME280;4912;50.836;12.958;2024-02-28T03:23:44;97909.53;;;6.62;100.00
9746;BME280;4912;50.836;12.958;2024-02-28T03:26:15;97908.75;;;6.62;100.00
9746;BME280;4912;50.836;12.958;2024-02-28T03:28:46;97913.16;;;6.59;100.00
9746;BME280;4912;50.836;12.958;2024-02-28T03:31:19;97916.44;;;6.54;100.00
9746;BME280;4912;50.836;12.958;2024-02-28T03:33:53;97925.91;;;6.53;100.00
9746;BME280;4912;50.836;12.958;2024-02-28T03:36:24;97924.16;;;6.59;100.00
9746;BME280;4912;50.836;12.958;2024-02-28T03:38:57;97930.53;;;6.56;100.00
9746;BME280;4912;50.836;12.958;2024-02-28T03:41:28;97925.91;;;6.53;100.00
9746;BME280;4912;50.836;12.958;2024-02-28T03:43:59;97939.88;;;6.58;100.00
9746;BME280;4912;50.836;12.958;2024-02-28T03:46:30;97933.81;;;6.51;100.00
9746;BME280;4912;50.836;12.958;2024-02-28T03:49:00;97938.78;;;6.56;100.00
9746;BME280;4912;50.836;12.958;2024-02-28T03:51:31;97947.56;;;6.51;100.00
9746;BME280;4912;50.836;12.958;2024-02-28T03:54:04;97951.09;;;6.51;100.00
9746;BME280;4912;50.836;12.958;2024-02-28T03:56:35;97959.44;;;6.48;100.00
9746;BME280;4912;50.836;12.958;2024-02-28T03:59:06;97966.47;;;6.49;100.00
9746;BME280;4912;50.836;12.958;2024-02-28T04:01:37;97962.06;;;6.51;100.00
9746;BME280;4912;50.836;12.958;2024-02-28T04:04:07;97964.06;;;6.51;100.00
9746;BME280;4912;50.836;12.958;2024-02-28T04:06:38;97971.53;;;6.50;100.00
9746;BME280;4912;50.836;12.958;2024-02-28T04:09:12;97967.22;;;6.49;100.00
9746;BME280;4912;50.836;12.958;2024-02-28T04:11:42;97971.19;;;6.48;100.00
9746;BME280;4912;50.836;12.958;2024-02-28T04:14:13;97979.78;;;6.50;100.00
9746;BME280;4912;50.836;12.958;2024-02-28T04:16:44;97982.53;;;6.50;100.00
9746;BME280;4912;50.836;12.958;2024-02-28T04:19:17;97989.56;;;6.51;100.00
9746;BME280;4912;50.836;12.958;2024-02-28T04:21:48;97998.34;;;6.46;100.00
9746;BME280;4912;50.836;12.958;2024-02-28T04:24:21;97999.31;;;6.40;100.00
9746;BME280;4912;50.836;12.958;2024-02-28T04:26:53;97994.91;;;6.42;100.00
9746;BME280;4912;50.836;12.958;2024-02-28T04:29:26;97998.13;;;6.41;100.00
9746;BME280;4912;50.836;12.958;2024-02-28T04:31:57;97994.69;;;6.37;100.00
9746;BME280;4912;50.836;12.958;2024-02-28T04:34:27;97990.72;;;6.38;100.00
9746;BME280;4912;50.836;12.958;2024-02-28T04:36:58;97985.88;;;6.29;100.00
9746;BME280;4912;50.836;12.958;2024-02-28T04:39:32;97990.91;;;6.31;100.00
9746;BME280;4912;50.836;12.958;2024-02-28T04:42:03;97991.25;;;6.33;100.00
9746;BME280;4912;50.836;12.958;2024-02-28T04:44:33;97994.34;;;6.35;100.00
9746;BME280;4912;50.836;12.958;2024-02-28T04:47:04;97995.03;;;6.39;100.00
9746;BME280;4912;50.836;12.958;2024-02-28T04:49:36;98005.25;;;6.38;100.00
9746;BME280;4912;50.836;12.958;2024-02-28T04:52:08;98000.50;;;6.39;100.00
9746;BME280;4912;50.836;12.958;2024-02-28T04:54:42;98005.16;;;6.42;100.00
9746;BME280;4912;50.836;12.958;2024-02-28T04:57:15;98005.16;;;6.42;100.00
9746;BME280;4912;50.836;12.958;2024-02-28T04:59:46;98011.66;;;6.48;100.00
9746;BME280;4912;50.836;12.958;2024-02-28T05:02:16;98011.09;;;6.40;100.00
9746;BME280;4912;50.836;12.958;2024-02-28T05:04:49;98023.38;;;6.36;100.00
9746;BME280;4912;50.836;12.958;2024-02-28T05:07:19;98018.75;;;6.33;100.00
9746;BME280;4912;50.836;12.958;2024-02-28T05:09:53;98019.41;;;6.37;100.00
9746;BME280;4912;50.836;12.958;2024-02-28T05:12:23;98029.19;;;6.38;100.00
9746;BME280;4912;50.836;12.958;2024-02-28T05:14:54;98021.31;;;6.40;100.00
9746;BME280;4912;50.836;12.958;2024-02-28T05:17:25;98019.41;;;6.37;100.00
9746;BME280;4912;50.836;12.958;2024-02-28T05:19:56;98023.38;;;6.36;100.00
9746;BME280;4912;50.836;12.958;2024-02-28T05:22:30;98030.50;;;6.33;100.00
9746;BME280;4912;50.836;12.958;2024-02-28T05:25:04;98023.03;;;6.34;100.00
9746;BME280;4912;50.836;12.958;2024-02-28T05:27:35;98034.81;;;6.34;100.00
9746;BME280;4912;50.836;12.958;2024-02-28T05:30:07;98034.03;;;6.34;100.00
9746;BME280;4912;50.836;12.958;2024-02-28T05:32:38;98039.19;;;6.32;100.00
9746;BME280;4912;50.836;12.958;2024-02-28T05:35:09;98037.72;;;6.27;100.00
9746;BME280;4912;50.836;12.958;2024-02-28T05:37:41;98038.84;;;6.30;100.00
9746;BME280;4912;50.836;12.958;2024-02-28T05:40:15;98038.41;;;6.31;100.00
9746;BME280;4912;50.836;12.958;2024-02-28T05:42:45;98040.38;;;6.31;100.00
9746;BME280;4912;50.836;12.958;2024-02-28T05:45:16;98047.41;;;6.32;100.00
9746;BME280;4912;50.836;12.958;2024-02-28T05:47:47;98060.72;;;6.33;100.00
9746;BME280;4912;50.836;12.958;2024-02-28T05:50:19;98052.13;;;6.31;100.00
9746;BME280;4912;50.836;12.958;2024-02-28T05:52:49;98058.34;;;6.35;100.00
9746;BME280;4912;50.836;12.958;2024-02-28T05:55:22;98061.50;;;6.34;100.00
9746;BME280;4912;50.836;12.958;2024-02-28T05:57:53;98060.84;;;6.30;100.00
9746;BME280;4912;50.836;12.958;2024-02-28T06:00:24;98059.59;;;6.31;100.00
9746;BME280;4912;50.836;12.958;2024-02-28T06:02:55;98057.88;;;6.37;100.00
9746;BME280;4912;50.836;12.958;2024-02-28T06:05:27;98054.41;;;6.49;100.00
9746;BME280;4912;50.836;12.958;2024-02-28T06:07:57;98066.09;;;6.53;100.00
9746;BME280;4912;50.836;12.958;2024-02-28T06:10:31;98066.72;;;6.44;100.00
9746;BME280;4912;50.836;12.958;2024-02-28T06:13:02;98075.38;;;6.43;100.00
9746;BME280;4912;50.836;12.958;2024-02-28T06:15:33;98073.50;;;6.40;100.00
9746;BME280;4912;50.836;12.958;2024-02-28T06:18:04;98080.06;;;6.30;100.00
9746;BME280;4912;50.836;12.958;2024-02-28T06:20:35;98083.25;;;6.28;100.00
9746;BME280;4912;50.836;12.958;2024-02-28T06:23:06;98084.19;;;6.22;100.00
9746;BME280;4912;50.836;12.958;2024-02-28T06:25:52;98083.06;;;6.19;100.00
9746;BME280;4912;50.836;12.958;2024-02-28T06:28:22;98087.53;;;6.13;100.00
9746;BME280;4912;50.836;12.958;2024-02-28T06:30:53;98086.81;;;6.12;100.00
9746;BME280;4912;50.836;12.958;2024-02-28T06:33:24;98099.31;;;6.13;100.00
9746;BME280;4912;50.836;12.958;2024-02-28T06:35:55;98101.72;;;6.11;100.00
9746;BME280;4912;50.836;12.958;2024-02-28T06:38:25;98101.03;;;6.07;100.00
9746;BME280;4912;50.836;12.958;2024-02-28T06:40:59;98102.69;;;6.05;100.00
9746;BME280;4912;50.836;12.958;2024-02-28T06:43:30;98106.19;;;6.05;100.00
9746;BME280;4912;50.836;12.958;2024-02-28T06:46:03;98111.00;;;6.01;100.00
9746;BME280;4912;50.836;12.958;2024-02-28T06:48:33;98103.53;;;6.02;100.00
9746;BME280;4912;50.836;12.958;2024-02-28T06:51:04;98106.00;;;5.96;100.00
9746;BME280;4912;50.836;12.958;2024-02-28T06:53:35;98111.44;;;6.00;100.00
9746;BME280;4912;50.836;12.958;2024-02-28T06:56:08;98111.00;;;6.01;100.00
9746;BME280;4912;50.836;12.958;2024-02-28T06:58:39;98114.59;;;5.98;100.00
9746;BME280;4912;50.836;12.958;2024-02-28T07:01:09;98115.38;;;5.99;100.00
9746;BME280;4912;50.836;12.958;2024-02-28T07:03:40;98113.75;;;6.01;100.00
9746;BME280;4912;50.836;12.958;2024-02-28T07:06:11;98109.97;;;6.11;100.00
9746;BME280;4912;50.836;12.958;2024-02-28T07:08:42;98122.59;;;6.09;100.00
9746;BME280;4912;50.836;12.958;2024-02-28T07:11:18;98119.75;;;6.12;100.00
9746;BME280;4912;50.836;12.958;2024-02-28T07:13:49;98121.72;;;6.12;100.00
9746;BME280;4912;50.836;12.958;2024-02-28T07:16:19;98112.53;;;6.18;100.00
9746;BME280;4912;50.836;12.958;2024-02-28T07:18:50;98125.41;;;6.22;100.00
9746;BME280;4912;50.836;12.958;2024-02-28T07:21:21;98117.16;;;6.22;100.00
9746;BME280;4912;50.836;12.958;2024-02-28T07:23:51;98125.00;;;6.23;100.00
9746;BME280;4912;50.836;12.958;2024-02-28T07:26:25;98122.31;;;6.20;100.00
9746;BME280;4912;50.836;12.958;2024-02-28T07:28:55;98118.88;;;6.15;100.00
9746;BME280;4912;50.836;12.958;2024-02-28T07:31:26;98128.16;;;6.22;100.00
9746;BME280;4912;50.836;12.958;2024-02-28T07:33:56;98129.72;;;6.23;100.00
9746;BME280;4912;50.836;12.958;2024-02-28T07:36:27;98136.75;;;6.24;100.00
9746;BME280;4912;50.836;12.958;2024-02-28T07:38:58;98132.03;;;6.24;100.00
9746;BME280;4912;50.836;12.958;2024-02-28T07:41:32;98138.47;;;6.18;100.00
9746;BME280;4912;50.836;12.958;2024-02-28T07:44:03;98143.97;;;6.18;100.00
9746;BME280;4912;50.836;12.958;2024-02-28T07:46:34;98136.91;;;6.16;100.00
9746;BME280;4912;50.836;12.958;2024-02-28T07:49:04;98140.19;;;6.11;100.00
9746;BME280;4912;50.836;12.958;2024-02-28T07:51:35;98139.75;;;6.13;100.00
9746;BME280;4912;50.836;12.958;2024-02-28T07:54:07;98141.75;;;6.12;100.00
9746;BME280;4912;50.836;12.958;2024-02-28T07:56:41;98140.25;;;6.08;100.00
9746;BME280;4912;50.836;12.958;2024-02-28T07:59:12;98137.19;;;6.06;100.00
9746;BME280;4912;50.836;12.958;2024-02-28T08:01:43;98145.19;;;6.00;100.00
9746;BME280;4912;50.836;12.958;2024-02-28T08:04:14;98147.22;;;5.96;100.00
9746;BME280;4912;50.836;12.958;2024-02-28T08:06:44;98157.00;;;5.97;100.00
9746;BME280;4912;50.836;12.958;2024-02-28T08:09:15;98153.84;;;5.99;100.00
9746;BME280;4912;50.836;12.958;2024-02-28T08:11:49;98154.25;;;5.97;100.00
9746;BME280;4912;50.836;12.958;2024-02-28T08:14:19;98153.47;;;5.97;100.00
9746;BME280;4912;50.836;12.958;2024-02-28T08:16:50;98158.91;;;6.00;100.00
9746;BME280;4912;50.836;12.958;2024-02-28T08:19:21;98153.84;;;5.99;100.00
9746;BME280;4912;50.836;12.958;2024-02-28T08:21:52;98154.94;;;6.01;100.00
9746;BME280;4912;50.836;12.958;2024-02-28T08:24:23;98162.50;;;5.97;100.00
9746;BME280;4912;50.836;12.958;2024-02-28T08:26:56;98165.25;;;5.97;100.00
9746;BME280;4912;50.836;12.958;2024-02-28T08:29:27;98167.91;;;6.01;100.00
9746;BME280;4912;50.836;12.958;2024-02-28T08:31:59;98170.72;;;5.97;100.00
9746;BME280;4912;50.836;12.958;2024-02-28T08:34:30;98176.06;;;5.88;100.00
9746;BME280;4912;50.836;12.958;2024-02-28T08:37:01;98176.06;;;5.88;100.00
9746;BME280;4912;50.836;12.958;2024-02-28T08:39:32;98187.31;;;5.94;100.00
9746;BME280;4912;50.836;12.958;2024-02-28T08:42:06;98193.06;;;5.99;100.00
9746;BME280;4912;50.836;12.958;2024-02-28T08:44:37;98197.69;;;6.02;100.00
9746;BME280;4912;50.836;12.958;2024-02-28T08:47:08;98196.84;;;6.05;100.00
9746;BME280;4912;50.836;12.958;2024-02-28T08:49:41;98194.34;;;6.11;100.00
9746;BME280;4912;50.836;12.958;2024-02-28T08:52:12;98188.69;;;6.18;100.00
9746;BME280;4912;50.836;12.958;2024-02-28T08:54:43;98186.69;;;6.18;100.00
9746;BME280;4912;50.836;12.958;2024-02-28T08:57:17;98190.84;;;6.27;100.00
9746;BME280;4912;50.836;12.958;2024-02-28T08:59:49;98194.19;;;6.34;100.00
9746;BME280;4912;50.836;12.958;2024-02-28T09:02:20;98202.75;;;6.36;100.00
9746;BME280;4912;50.836;12.958;2024-02-28T09:04:51;98202.19;;;6.29;100.00
9746;BME280;4912;50.836;12.958;2024-02-28T09:07:24;98194.78;;;6.26;100.00
9746;BME280;4912;50.836;12.958;2024-02-28T09:09:55;98201.03;;;6.26;100.00
9746;BME280;4912;50.836;12.958;2024-02-28T09:12:28;98210.00;;;6.30;100.00
9746;BME280;4912;50.836;12.958;2024-02-28T09:14:59;98202.94;;;6.29;100.00
9746;BME280;4912;50.836;12.958;2024-02-28T09:17:30;98205.75;;;6.26;100.00
9746;BME280;4912;50.836;12.958;2024-02-28T09:20:01;98208.50;;;6.26;100.00
9746;BME280;4912;50.836;12.958;2024-02-28T09:22:33;98213.75;;;6.20;100.00
9746;BME280;4912;50.836;12.958;2024-02-28T09:25:06;98211.94;;;6.13;100.00
9746;BME280;4912;50.836;12.958;2024-02-28T09:27:40;98214.34;;;6.11;100.00
9746;BME280;4912;50.836;12.958;2024-02-28T09:30:11;98213.16;;;6.12;100.00
9746;BME280;4912;50.836;12.958;2024-02-28T09:32:43;98217.69;;;6.19;100.00
9746;BME280;4912;50.836;12.958;2024-02-28T09:35:14;98226.38;;;6.18;100.00
9746;BME280;4912;50.836;12.958;2024-02-28T09:37:45;98229.97;;;6.14;100.00
9746;BME280;4912;50.836;12.958;2024-02-28T09:40:16;98227.59;;;6.16;100.00
9746;BME280;4912;50.836;12.958;2024-02-28T09:42:52;98225.78;;;6.10;100.00
9746;BME280;4912;50.836;12.958;2024-02-28T09:45:25;98221.66;;;6.18;100.00
9746;BME280;4912;50.836;12.958;2024-02-28T09:47:58;98226.81;;;6.16;100.00
9746;BME280;4912;50.836;12.958;2024-02-28T09:50:30;98216.59;;;6.33;100.00
9746;BME280;4912;50.836;12.958;2024-02-28T09:53:04;98224.94;;;6.45;100.00
9746;BME280;4912;50.836;12.958;2024-02-28T09:55:37;98226.06;;;6.48;100.00
9746;BME280;4912;50.836;12.958;2024-02-28T09:58:11;98228.69;;;6.51;100.00
9746;BME280;4912;50.836;12.958;2024-02-28T10:00:43;98231.03;;;6.53;100.00
9746;BME280;4912;50.836;12.958;2024-02-28T10:03:17;98231.88;;;6.50;100.00
9746;BME280;4912;50.836;12.958;2024-02-28T10:05:50;98234.59;;;6.66;100.00
9746;BME280;4912;50.836;12.958;2024-02-28T10:08:20;98238.38;;;6.72;99.96
9746;BME280;4912;50.836;12.958;2024-02-28T10:10:51;98248.97;;;6.74;99.87
9746;BME280;4912;50.836;12.958;2024-02-28T10:13:27;98249.63;;;6.78;99.93
9746;BME280;4912;50.836;12.958;2024-02-28T10:15:58;98259.38;;;6.82;98.50
9746;BME280;4912;50.836;12.958;2024-02-28T10:18:31;98259.78;;;6.81;96.68
9746;BME280;4912;50.836;12.958;2024-02-28T10:21:02;98267.94;;;6.84;96.92
9746;BME280;4912;50.836;12.958;2024-02-28T10:23:33;98274.13;;;6.88;96.96
9746;BME280;4912;50.836;12.958;2024-02-28T10:26:04;98270.59;;;6.72;98.08
9746;BME280;4912;50.836;12.958;2024-02-28T10:28:39;98282.13;;;6.67;99.34
9746;BME280;4912;50.836;12.958;2024-02-28T10:31:11;98281.13;;;6.77;98.97
9746;BME280;4912;50.836;12.958;2024-02-28T10:33:42;98281.38;;;6.82;96.95
9746;BME280;4912;50.836;12.958;2024-02-28T10:36:13;98274.22;;;6.85;94.82
9746;BME280;4912;50.836;12.958;2024-02-28T10:38:44;98275.19;;;7.07;93.50
9746;BME280;4912;50.836;12.958;2024-02-28T10:41:15;98274.06;;;7.21;93.98
9746;BME280;4912;50.836;12.958;2024-02-28T10:43:49;98272.16;;;7.34;92.04
9746;BME280;4912;50.836;12.958;2024-02-28T10:46:22;98274.22;;;7.30;90.99
9746;BME280;4912;50.836;12.958;2024-02-28T10:49:03;98276.44;;;7.35;92.06
9746;BME280;4912;50.836;12.958;2024-02-28T10:51:35;98281.31;;;7.44;91.14
9746;BME280;4912;50.836;12.958;2024-02-28T10:54:08;98285.41;;;7.52;91.84
9746;BME280;4912;50.836;12.958;2024-02-28T10:56:42;98280.44;;;7.47;90.72
9746;BME280;4912;50.836;12.958;2024-02-28T10:59:16;98286.63;;;7.51;90.30
9746;BME280;4912;50.836;12.958;2024-02-28T11:01:47;98290.94;;;7.52;92.08
9746;BME280;4912;50.836;12.958;2024-02-28T11:04:19;98275.66;;;7.63;92.30
9746;BME280;4912;50.836;12.958;2024-02-28T11:06:55;98283.25;;;7.72;91.46
9746;BME280;4912;50.836;12.958;2024-02-28T11:09:28;98287.34;;;7.67;89.55
9746;BME280;4912;50.836;12.958;2024-02-28T11:12:00;98286.47;;;7.70;88.02
9746;BME280;4912;50.836;12.958;2024-02-28T11:14:34;98290.13;;;7.80;88.11
9746;BME280;4912;50.836;12.958;2024-02-28T11:17:05;98296.06;;;7.78;84.72
9746;BME280;4912;50.836;12.958;2024-02-28T11:19:38;98293.22;;;7.82;84.23
9746;BME280;4912;50.836;12.958;2024-02-28T11:22:11;98286.53;;;8.08;83.54
9746;BME280;4912;50.836;12.958;2024-02-28T11:24:44;98288.31;;;8.15;82.37
9746;BME280;4912;50.836;12.958;2024-02-28T11:27:16;98289.97;;;8.12;80.95
9746;BME280;4912;50.836;12.958;2024-02-28T11:29:50;98282.34;;;8.04;80.11
9746;BME280;4912;50.836;12.958;2024-02-28T11:32:20;98287.44;;;8.31;79.71
9746;BME280;4912;50.836;12.958;2024-02-28T11:34:51;98287.13;;;8.41;80.59
9746;BME280;4912;50.836;12.958;2024-02-28T11:37:22;98285.94;;;8.42;79.72
9746;BME280;4912;50.836;12.958;2024-02-28T11:39:53;98296.63;;;8.40;78.53
9746;BME280;4912;50.836;12.958;2024-02-28T11:42:24;98293.06;;;8.27;79.27
9746;BME280;4912;50.836;12.958;2024-02-28T11:44:58;98295.25;;;8.07;80.47
9746;BME280;4912;50.836;12.958;2024-02-28T11:47:32;98297.66;;;8.05;81.38
9746;BME280;4912;50.836;12.958;2024-02-28T11:50:04;98300.19;;;7.99;81.82
9746;BME280;4912;50.836;12.958;2024-02-28T11:52:36;98298.66;;;7.98;81.11
9746;BME280;4912;50.836;12.958;2024-02-28T11:55:08;98306.94;;;8.11;79.29
9746;BME280;4912;50.836;12.958;2024-02-28T11:57:38;98305.47;;;7.94;79.17
9746;BME280;4912;50.836;12.958;2024-02-28T12:00:13;98303.31;;;7.72;80.42
9746;BME280;4912;50.836;12.958;2024-02-28T12:02:44;98296.00;;;7.95;80.43
9746;BME280;4912;50.836;12.958;2024-02-28T12:05:19;98304.28;;;8.20;79.95
9746;BME280;4912;50.836;12.958;2024-02-28T12:07:50;98295.63;;;8.34;79.27
9746;BME280;4912;50.836;12.958;2024-02-28T12:10:23;98302.22;;;8.49;79.65
9746;BME280;4912;50.836;12.958;2024-02-28T12:12:59;98302.34;;;8.58;79.94
9746;BME280;4912;50.836;12.958;2024-02-28T12:15:33;98299.38;;;8.53;79.88
9746;BME280;4912;50.836;12.958;2024-02-28T12:18:08;98297.50;;;8.37;79.66
9746;BME280;4912;50.836;12.958;2024-02-28T12:20:39;98298.81;;;8.45;79.71
9746;BME280;4912;50.836;12.958;2024-02-28T12:23:10;98300.97;;;8.25;77.38
9746;BME280;4912;50.836;12.958;2024-02-28T12:25:41;98295.94;;;8.23;77.15
9746;BME280;4912;50.836;12.958;2024-02-28T12:28:12;98289.88;;;8.29;76.60
9746;BME280;4912;50.836;12.958;2024-02-28T12:30:45;98290.13;;;8.59;76.39
9746;BME280;4912;50.836;12.958;2024-02-28T12:33:16;98287.91;;;9.01;75.26
9746;BME280;4912;50.836;12.958;2024-02-28T12:35:47;98289.13;;;9.48;74.12
9746;BME280;4912;50.836;12.958;2024-02-28T12:38:27;98282.28;;;10.36;70.97
9746;BME280;4912;50.836;12.958;2024-02-28T12:40:58;98283.66;;;10.71;66.47
9746;BME280;4912;50.836;12.958;2024-02-28T12:43:29;98277.19;;;10.74;67.31
9746;BME280;4912;50.836;12.958;2024-02-28T12:46:03;98270.72;;;12.14;64.29
9746;BME280;4912;50.836;12.958;2024-02-28T12:48:37;98278.94;;;13.84;55.55
9746;BME280;4912;50.836;12.958;2024-02-28T12:51:10;98273.38;;;13.07;57.37
9746;BME280;4912;50.836;12.958;2024-02-28T12:53:44;98269.59;;;14.60;55.36
9746;BME280;4912;50.836;12.958;2024-02-28T12:56:18;98275.66;;;14.94;51.53
9746;BME280;4912;50.836;12.958;2024-02-28T12:58:49;98266.16;;;15.92;49.28
9746;BME280;4912;50.836;12.958;2024-02-28T13:01:22;98264.06;;;18.11;43.90
9746;BME280;4912;50.836;12.958;2024-02-28T13:03:54;98259.63;;;19.10;41.02
9746;BME280;4912;50.836;12.958;2024-02-28T13:06:25;98256.97;;;19.92;39.20
9746;BME280;4912;50.836;12.958;2024-02-28T13:08:56;98260.31;;;20.56;38.12
9746;BME280;4912;50.836;12.958;2024-02-28T13:11:27;98268.03;;;21.04;36.42
9746;BME280;4912;50.836;12.958;2024-02-28T13:14:01;98260.25;;;20.37;36.22
9746;BME280;4912;50.836;12.958;2024-02-28T13:16:34;98260.31;;;19.85;37.76
9746;BME280;4912;50.836;12.958;2024-02-28T13:19:05;98258.88;;;20.74;36.44
9746;BME280;4912;50.836;12.958;2024-02-28T13:21:36;98249.41;;;22.19;34.62
9746;BME280;4912;50.836;12.958;2024-02-28T13:24:07;98251.56;;;23.16;32.27
9746;BME280;4912;50.836;12.958;2024-02-28T13:26:38;98248.63;;;23.95;32.14
9746;BME280;4912;50.836;12.958;2024-02-28T13:29:09;98253.38;;;24.55;30.06
9746;BME280;4912;50.836;12.958;2024-02-28T13:31:43;98251.47;;;24.16;29.44
9746;BME280;4912;50.836;12.958;2024-02-28T13:34:13;98255.47;;;21.73;30.49
9746;BME280;4912;50.836;12.958;2024-02-28T13:36:44;98254.59;;;20.43;32.28